Alton, IL

06:23 AM CDT am 26. Mai 2015 (GMT -0500)
KILALTON7 | | Change Station
CLOSE
Current Station
Persönliche Wetterstationen
Location: Alton, IL
Höhe: 489 ft
Wetterstationen in der Umgebung

Höhe 489 ft 38.91 °N, 90.14 °W | Updated 4 minutes ago

Bedeckt
Bedeckt
71.6 °F
gefühlte 71.6 °F
N
1.6
Wind Wechselnd Wind aus Süd
Gusts 1.6 mph

Heute
Max. -- | schwach -- °F
--% Regenrisiko
Gestern
Max. -- | schwach -- °F
Precip. -- inch
5:40 AM 8:15 PM
Erstes Viertel, 57% visible
Druck 29.85 inch
Sichtweite 10.0 Meilen
Wolken Wolkig 1300 ft
Bedeckt 1900 ft
Taupunkt 69 °F
Feuchtigkeit 92%
Regen 0.00 inch
Schneehöhe Nicht verfügbar..
UV 0 von 12
Pollen 4.10 von 12
Luftqualität Nicht verfügbar..
Flu Activity Sporadic
METAR KALN 261115Z AUTO 13013G18KT 10SM BKN013 OVC019 22/22 A2985 RMK AO2 T02160216

More Conditions Fewer Conditions

Druck 29.85 inch
Sichtweite 10.0 Meilen
Wolken Wolkig 1300 ft
Bedeckt 1900 ft
Taupunkt 69 °F
Feuchtigkeit 92%
Regen 0.00 inch
Schneehöhe Nicht verfügbar..
UV 0 von 12
Pollen 4.10 von 12
Luftqualität Nicht verfügbar..
Flu Activity Sporadic
METAR KALN 261115Z AUTO 13013G18KT 10SM BKN013 OVC019 22/22 A2985 RMK AO2 T02160216

More Conditions Fewer Conditions

10-Day Weather Forecast

Almanac

Astronomie

May. 26, 2015 Aufgang Untergang
Genaue Zeit
Bürgerliche Dämmerung
Nautische Dämmerung
Astronomische Dämmerung
Mond
Länge des sichtbaren Lichts
Tageslänge
Tomorrow will be .
, % of the Moon is Illuminated

Heutige Rekorde

State Highs State Lows

Community

WunderPhotos

Upload Photos

1,824,304 Fotos hochgeladen!

WunderBlogs® & News

Nearby

Luftqualität

  Luftqualität LQ Index Schadstoff
Not available.

Schneehöhe

Station Depth Höhe

Erdbebenaktivität

Stadt Distance Mag. Time & Date
Minimum magnitude displayed is 2.5.

küstennahe Wassertemperaturen

Ort Temperatur

Stations

Wetterstationen in der Umgebung

Stationsstandort Temp. Windchill Taupunkt Feuchtigkeit Wind Precip. Höhe Aktualisiert Art